Williston Park, NY (11596)

8:17 AM EDT on September 22, 2014 (GMT -0400)
DaneDad's (NT2L) | Change Station
CLOSE
Current Station
Personal Weather Station
Location: New Hyde Park, NY
Elevation: 125 ft
Nearby Weather Stations
Active Advisory: Coastal Hazard Statement

Elev 125 ft 40.75 °N, 73.66 °W | Updated 52 seconds ago

Clear
Clear
64.4 °F
Feels Like 64.4 °F
N
4.0
Wind Variable Wind from West
Gusts 0.0 mph

Today
High -- | Low -- °F
--% Chance of Precip.
Yesterday
High -- | Low -- °F
Precip. -- in
6:42 AM 6:51 PM
Waning Crescent, 3% visible
Pressure 29.81 in
Visibility 10.0 miles
Clouds Few 3500 ft
Scattered Clouds 25000 ft
Dew Point 56 °F
Humidity 73%
Rainfall 0.04 in
Snow Depth Not available.
UV 1 out of 12
Pollen 3.30 out of 12
Air Quality Not available.
Flu Activity Not available.
METAR KJFK 221151Z 29012G20KT 10SM FEW035 SCT250 19/11 A2981 RMK AO2 SLP094 70001 T01890111 10217 20183 53033 $

More Conditions Fewer Conditions

Pressure 29.81 in
Visibility 10.0 miles
Clouds Few 3500 ft
Scattered Clouds 25000 ft
Dew Point 56 °F
Humidity 73%
Rainfall 0.04 in
Snow Depth Not available.
UV 1 out of 12
Pollen 3.30 out of 12
Air Quality Not available.
Flu Activity Not available.
METAR KJFK 221151Z 29012G20KT 10SM FEW035 SCT250 19/11 A2981 RMK AO2 SLP094 70001 T01890111 10217 20183 53033 $

More Conditions Fewer Conditions

10-Day Weather Forecast

Almanac

Astronomy

Sep. 22, 2014 Rise Set
Actual Time 6:42 AM EDT 6:51 PM EDT
Civil Twilight 6:14 AM EDT 7:19 PM EDT
Nautical Twilight 5:42 AM EDT 7:51 PM EDT
Astronomical Twilight 5:10 AM EDT 8:23 PM EDT
Moon 5:07 AM EDT 5:58 PM EDT
Length of Visible Light 13h 04m
Length of Day
12h 09m
Tomorrow will be 2m 42s shorter.
Waning Crescent, 3% of the Moon is Illuminated
Today
Waning Crescent
Sep 24
New
Oct 1
First Quarter
Oct 8
Full
Oct 15
Last Quarter

Today's Extremes

State Highs State Lows

Community

WunderPhotos

Upload Photos

1,755,417 photos uploaded!

WunderBlogs® & News

Nearby

Snow Depth

Station Depth Elevation
No new snow has been reported.

Earthquake Activity

City Distance Mag. Time & Date
No recent earthquake activity has been reported nearby.
Minimum magnitude displayed is 2.5.

Coastal Water Temperatures

Place Temperature
Kings Point, NY 68.0 °F
Bridgeport, CT 69.1 °F

Nearby Weather Stations